createdAt,value
2018-08-07T00:01:36.151Z,95521.89
2018-08-07T00:04:04.932Z,95520.15
2018-08-07T00:06:33.540Z,95519.80
2018-08-07T00:09:02.286Z,95513.13
2018-08-07T00:11:31.006Z,95516.69
2018-08-07T00:13:59.735Z,95512.60
2018-08-07T00:16:28.401Z,95523.55
2018-08-07T00:18:57.054Z,95517.53
2018-08-07T00:21:25.682Z,95522.69
2018-08-07T00:23:54.341Z,95520.41
2018-08-07T00:26:22.991Z,95517.81
2018-08-07T00:28:51.589Z,95523.55
2018-08-07T00:31:20.206Z,95520.48
2018-08-07T00:33:48.839Z,95524.45
2018-08-07T00:36:17.506Z,95515.73
2018-08-07T00:38:46.155Z,95520.94
2018-08-07T00:41:14.820Z,95522.30
2018-08-07T00:43:43.470Z,95519.22
2018-08-07T00:46:12.172Z,95512.52
2018-08-07T00:48:40.878Z,95519.52
2018-08-07T00:51:09.534Z,95522.69
2018-08-07T00:53:38.152Z,95518.94
2018-08-07T00:56:06.912Z,95514.30
2018-08-07T00:58:35.615Z,95514.38
2018-08-07T01:01:04.234Z,95510.38
2018-08-07T01:03:33.132Z,95513.63
2018-08-07T01:06:01.835Z,95512.67
2018-08-07T01:08:30.450Z,95506.88
2018-08-07T01:10:59.118Z,95509.80
2018-08-07T01:13:27.787Z,95508.25
2018-08-07T01:15:56.454Z,95505.11
2018-08-07T01:18:25.114Z,95505.11
2018-08-07T01:20:53.681Z,95511.20
2018-08-07T01:23:22.374Z,95503.84
2018-08-07T01:25:51.062Z,95507.63
2018-08-07T01:28:19.723Z,95501.33
2018-08-07T01:30:48.360Z,95497.34
2018-08-07T01:33:16.932Z,95499.56
2018-08-07T01:35:45.574Z,95497.82
2018-08-07T01:38:14.243Z,95495.75
2018-08-07T01:40:42.896Z,95500.07
2018-08-07T01:43:11.535Z,95497.33
2018-08-07T01:45:40.183Z,95496.32
2018-08-07T01:48:08.834Z,95499.32
2018-08-07T01:50:37.509Z,95493.47
2018-08-07T01:53:06.219Z,95497.58
2018-08-07T01:55:34.840Z,95501.33
2018-08-07T01:58:03.507Z,95496.14
2018-08-07T02:00:32.161Z,95501.01
2018-08-07T02:03:00.795Z,95502.27
2018-08-07T02:05:29.386Z,95502.95
2018-08-07T02:07:57.991Z,95498.23
2018-08-07T02:10:26.639Z,95502.16
2018-08-07T02:12:55.282Z,95508.61
2018-08-07T02:15:23.946Z,95504.59
2018-08-07T02:17:52.575Z,95506.80
2018-08-07T02:20:21.187Z,95509.13
2018-08-07T02:22:49.858Z,95503.65
2018-08-07T02:25:19.562Z,95499.91
2018-08-07T02:27:48.694Z,95502.22
2018-08-07T02:30:18.016Z,95513.83
2018-08-07T02:32:46.661Z,95512.27
2018-08-07T02:35:16.202Z,95509.47
2018-08-07T02:37:45.744Z,95511.16
2018-08-07T02:40:14.894Z,95516.36
2018-08-07T02:42:43.974Z,95525.48
2018-08-07T02:45:16.446Z,95523.59
2018-08-07T02:47:45.562Z,95530.38
2018-08-07T02:50:16.825Z,95520.63
2018-08-07T02:52:45.631Z,95526.05
2018-08-07T02:55:14.322Z,95530.91
2018-08-07T02:57:43.624Z,95530.02
2018-08-07T03:00:17.763Z,95527.45
2018-08-07T03:02:46.638Z,95525.03
2018-08-07T03:05:15.429Z,95534.61
2018-08-07T03:07:44.175Z,95526.72
2018-08-07T03:10:12.819Z,95536.52
2018-08-07T03:12:41.438Z,95532.76
2018-08-07T03:15:13.757Z,95536.63
2018-08-07T03:17:43.062Z,95539.05
2018-08-07T03:20:11.753Z,95534.84
2018-08-07T03:22:40.394Z,95538.14
2018-08-07T03:25:10.763Z,95536.58
2018-08-07T03:27:39.410Z,95540.00
2018-08-07T03:30:10.295Z,95539.31
2018-08-07T03:32:39.155Z,95541.19
2018-08-07T03:35:08.022Z,95547.67
2018-08-07T03:37:37.368Z,95546.58
2018-08-07T03:40:08.411Z,95548.85
2018-08-07T03:42:37.163Z,95547.70
2018-08-07T03:45:06.585Z,95550.56
2018-08-07T03:47:35.333Z,95552.51
2018-08-07T03:50:04.018Z,95556.46
2018-08-07T03:52:32.743Z,95554.85
2018-08-07T03:55:01.407Z,95556.20
2018-08-07T03:57:30.127Z,95552.72
2018-08-07T03:59:58.743Z,95557.44
2018-08-07T04:02:27.407Z,95556.00
2018-08-07T04:04:56.007Z,95559.13
2018-08-07T04:07:24.647Z,95555.73
2018-08-07T04:09:53.287Z,95551.84
2018-08-07T04:12:22.264Z,95555.56
2018-08-07T04:14:50.850Z,95555.34
2018-08-07T04:17:19.486Z,95561.47
2018-08-07T04:19:48.127Z,95562.88
2018-08-07T04:22:16.746Z,95564.95
2018-08-07T04:24:45.383Z,95563.99
2018-08-07T04:27:14.058Z,95563.73
2018-08-07T04:29:42.668Z,95570.04
2018-08-07T04:32:11.291Z,95562.02
2018-08-07T04:34:39.961Z,95567.17
2018-08-07T04:37:08.539Z,95571.26
2018-08-07T04:39:37.203Z,95574.05
2018-08-07T04:42:05.863Z,95580.33
2018-08-07T04:44:34.812Z,95577.90
2018-08-07T04:47:03.467Z,95573.70
2018-08-07T04:49:32.106Z,95576.44
2018-08-07T04:52:00.779Z,95572.31
2018-08-07T04:54:29.506Z,95577.63
2018-08-07T04:56:58.118Z,95579.34
2018-08-07T04:59:26.678Z,95577.80
2018-08-07T05:01:55.339Z,95582.91
2018-08-07T05:04:23.957Z,95583.67
2018-08-07T05:06:52.619Z,95576.44
2018-08-07T05:09:21.258Z,95581.95
2018-08-07T05:11:49.884Z,95584.45
2018-08-07T05:14:18.559Z,95587.98
2018-08-07T05:16:47.246Z,95588.46
2018-08-07T05:19:15.907Z,95601.50
2018-08-07T05:21:44.560Z,95598.92
2018-08-07T05:24:13.244Z,95601.22
2018-08-07T05:26:41.903Z,95600.44
2018-08-07T05:29:10.643Z,95598.53
2018-08-07T05:31:39.270Z,95596.38
2018-08-07T05:34:08.230Z,95600.09
2018-08-07T05:36:36.893Z,95601.61
2018-08-07T05:39:08.143Z,95597.06
2018-08-07T05:41:36.823Z,95605.48
2018-08-07T05:44:05.563Z,95602.73
2018-08-07T05:46:34.287Z,95609.00
2018-08-07T05:49:02.987Z,95612.03
2018-08-07T05:51:31.902Z,95609.36
2018-08-07T05:54:00.626Z,95607.21
2018-08-07T05:56:29.378Z,95611.23
2018-08-07T05:58:57.998Z,95614.20
2018-08-07T06:01:26.641Z,95615.11
2018-08-07T06:03:55.424Z,95617.48
2018-08-07T06:06:24.218Z,95612.20
2018-08-07T06:08:52.853Z,95615.85
2018-08-07T06:11:21.550Z,95613.58
2018-08-07T06:13:50.193Z,95605.55
2018-08-07T06:16:18.811Z,95608.82
2018-08-07T06:18:47.484Z,95610.33
2018-08-07T06:21:16.162Z,95617.00
2018-08-07T06:23:44.784Z,95615.62
2018-08-07T06:26:13.486Z,95611.69
2018-08-07T06:28:42.249Z,95619.48
2018-08-07T06:31:10.858Z,95618.05
2018-08-07T06:33:39.566Z,95617.02
2018-08-07T06:36:08.302Z,95608.75
2018-08-07T06:38:36.956Z,95609.98
2018-08-07T06:41:05.651Z,95608.33
2018-08-07T06:43:34.362Z,95610.34
2018-08-07T06:46:03.031Z,95612.70
2018-08-07T06:48:31.719Z,95601.66
2018-08-07T06:51:00.367Z,95606.76
2018-08-07T06:53:28.950Z,95603.33
2018-08-07T06:55:57.663Z,95599.25
2018-08-07T06:58:26.316Z,95612.78
2018-08-07T07:00:55.003Z,95612.42
2018-08-07T07:03:23.629Z,95599.42
2018-08-07T07:05:52.294Z,95598.84
2018-08-07T07:08:20.942Z,95603.20
2018-08-07T07:10:49.551Z,95610.31
2018-08-07T07:13:18.220Z,95602.95
2018-08-07T07:15:46.891Z,95602.83
2018-08-07T07:18:15.554Z,95599.65
2018-08-07T07:20:44.193Z,95608.30
2018-08-07T07:23:12.804Z,95609.98
2018-08-07T07:25:41.422Z,95607.92
2018-08-07T07:28:10.073Z,95600.28
2018-08-07T07:30:38.768Z,95609.67
2018-08-07T07:33:07.448Z,95478.61
2018-08-07T07:35:36.112Z,95606.93
2018-08-07T07:38:04.766Z,95606.98
2018-08-07T07:40:33.379Z,95603.47
2018-08-07T07:43:02.242Z,95605.38
2018-08-07T07:45:30.975Z,95609.34
2018-08-07T07:47:59.616Z,95600.08
2018-08-07T07:50:28.313Z,95602.89
2018-08-07T07:52:56.931Z,95596.08
2018-08-07T07:55:25.630Z,95593.03
2018-08-07T07:57:54.555Z,95593.45
2018-08-07T08:00:25.364Z,95596.80
2018-08-07T08:02:54.258Z,95592.62
2018-08-07T08:05:23.923Z,95586.83
2018-08-07T08:07:52.886Z,95591.20
2018-08-07T08:10:21.556Z,95591.67
2018-08-07T08:12:50.312Z,95591.59
2018-08-07T08:15:19.409Z,95586.00
2018-08-07T08:17:48.808Z,95585.09
2018-08-07T08:20:22.479Z,95580.32
2018-08-07T08:22:52.023Z,95587.08
2018-08-07T08:25:20.816Z,95581.08
2018-08-07T08:27:49.548Z,95577.84
2018-08-07T08:30:18.626Z,95574.54
2018-08-07T08:32:47.632Z,95572.09
2018-08-07T08:35:17.516Z,95579.02
2018-08-07T08:37:46.678Z,95576.05
2018-08-07T08:40:17.760Z,95575.52
2018-08-07T08:42:46.483Z,95578.94
2018-08-07T08:45:19.590Z,95573.64
2018-08-07T08:47:50.472Z,95574.11
2018-08-07T08:50:20.216Z,95573.09
2018-08-07T08:52:48.962Z,95572.82
2018-08-07T08:55:17.626Z,95570.09
2018-08-07T08:57:46.496Z,95569.58
2018-08-07T09:00:18.903Z,95568.98
2018-08-07T09:02:47.950Z,95565.63
2018-08-07T09:05:16.712Z,95574.88
2018-08-07T09:07:45.625Z,95567.52
2018-08-07T09:10:19.528Z,95568.16
2018-08-07T09:12:48.617Z,95572.73
2018-08-07T09:15:17.458Z,95570.37
2018-08-07T09:17:46.218Z,95568.41
2018-08-07T09:20:18.171Z,95566.40
2018-08-07T09:22:46.783Z,95575.22
2018-08-07T09:25:15.523Z,95567.19
2018-08-07T09:27:44.298Z,95556.45
2018-08-07T09:30:19.503Z,95569.75
2018-08-07T09:32:49.203Z,95560.23
2018-08-07T09:35:18.702Z,95561.11
2018-08-07T09:37:47.454Z,95551.23
2018-08-07T09:40:17.329Z,95546.75
2018-08-07T09:42:47.410Z,95554.44
2018-08-07T09:45:21.722Z,95561.72
2018-08-07T09:47:50.489Z,95558.08
2018-08-07T09:50:19.617Z,95542.27
2018-08-07T09:52:48.880Z,95546.81
2018-08-07T09:55:17.603Z,95544.58
2018-08-07T09:57:46.298Z,95539.45
2018-08-07T10:00:22.138Z,95545.59
2018-08-07T10:02:52.631Z,95537.73
2018-08-07T10:05:23.240Z,95541.22
2018-08-07T10:07:51.948Z,95525.17
2018-08-07T10:10:21.033Z,95532.30
2018-08-07T10:12:49.738Z,95537.41
2018-08-07T10:15:18.643Z,95529.50
2018-08-07T10:17:47.403Z,95529.08
2018-08-07T10:20:16.351Z,95512.31
2018-08-07T10:22:45.169Z,95517.05
2018-08-07T10:25:16.062Z,95512.19
2018-08-07T10:27:45.758Z,95517.30
2018-08-07T10:30:16.694Z,95499.91
2018-08-07T10:32:45.506Z,95508.79
2018-08-07T10:35:14.817Z,95501.61
2018-08-07T10:37:44.295Z,95498.91
2018-08-07T10:40:14.689Z,95494.06
2018-08-07T10:42:43.486Z,95484.09
2018-08-07T10:45:16.294Z,95480.55
2018-08-07T10:47:45.059Z,95472.38
2018-08-07T10:50:16.963Z,95481.84
2018-08-07T10:52:45.804Z,95473.63
2018-08-07T10:55:14.588Z,95469.03
2018-08-07T10:57:45.298Z,95477.15
2018-08-07T11:00:22.136Z,95459.77
2018-08-07T11:02:51.599Z,95208.02
2018-08-07T11:05:21.590Z,95460.35
2018-08-07T11:07:50.467Z,95464.30
2018-08-07T11:10:19.495Z,95460.17
2018-08-07T11:12:48.541Z,95455.15
2018-08-07T11:15:21.407Z,95454.97
2018-08-07T11:17:50.837Z,95455.63
2018-08-07T11:20:19.714Z,95457.66
2018-08-07T11:22:49.512Z,95456.19
2018-08-07T11:25:19.384Z,95455.49
2018-08-07T11:27:48.135Z,95444.72
2018-08-07T11:30:18.702Z,95448.95
2018-08-07T11:32:47.803Z,95445.78
2018-08-07T11:35:16.774Z,95440.73
2018-08-07T11:37:47.594Z,95435.05
2018-08-07T11:40:17.955Z,95437.51
2018-08-07T11:42:47.604Z,95437.66
2018-08-07T11:45:31.078Z,95434.08
2018-08-07T11:47:59.883Z,95427.76
2018-08-07T11:50:30.854Z,95425.50
2018-08-07T11:52:59.618Z,95429.27
2018-08-07T11:55:28.795Z,95426.61
2018-08-07T11:57:57.527Z,95426.68
2018-08-07T12:00:40.041Z,95417.03
2018-08-07T12:03:11.670Z,95407.55
2018-08-07T12:05:40.324Z,95411.02
2018-08-07T12:08:09.356Z,95397.98
2018-08-07T12:10:38.012Z,95404.51
2018-08-07T12:13:06.823Z,95401.62
2018-08-07T12:15:35.513Z,95396.45
2018-08-07T12:18:04.182Z,95396.14
2018-08-07T12:20:32.778Z,95399.33
2018-08-07T12:23:01.508Z,95399.14
2018-08-07T12:25:30.327Z,95390.59
2018-08-07T12:27:59.030Z,95382.63
2018-08-07T12:30:29.776Z,95386.62
2018-08-07T12:32:58.982Z,95395.45
2018-08-07T12:35:27.691Z,95400.09
2018-08-07T12:37:56.476Z,95395.39
2018-08-07T12:40:27.828Z,95405.31
2018-08-07T12:42:59.704Z,95399.63
2018-08-07T12:45:28.408Z,95409.58
2018-08-07T12:47:57.161Z,95411.77
2018-08-07T12:50:25.810Z,95417.30
2018-08-07T12:52:54.551Z,95416.36
2018-08-07T12:55:24.011Z,95412.91
2018-08-07T12:57:53.175Z,95412.24
2018-08-07T13:00:23.314Z,95410.69
2018-08-07T13:02:52.118Z,95401.78
2018-08-07T13:05:20.960Z,95405.43
2018-08-07T13:07:49.745Z,95401.44
2018-08-07T13:10:19.886Z,95399.81
2018-08-07T13:12:49.248Z,95397.37
2018-08-07T13:15:19.088Z,95402.83
2018-08-07T13:17:48.159Z,95405.63
2018-08-07T13:20:16.972Z,95408.15
2018-08-07T13:22:46.317Z,95398.37
2018-08-07T13:25:17.039Z,95389.03
2018-08-07T13:27:45.746Z,95390.87
2018-08-07T13:30:25.656Z,95392.66
2018-08-07T13:32:54.464Z,95395.23
2018-08-07T13:35:23.326Z,95392.42
2018-08-07T13:37:52.646Z,95395.52
2018-08-07T13:40:22.817Z,95392.41
2018-08-07T13:42:51.462Z,95389.35
2018-08-07T13:45:21.767Z,95388.17
2018-08-07T13:47:50.498Z,95382.52
2018-08-07T13:50:20.246Z,95383.20
2018-08-07T13:52:49.545Z,95377.36
2018-08-07T13:55:19.134Z,95387.77
2018-08-07T13:57:47.997Z,95386.38
2018-08-07T14:00:19.619Z,95388.94
2018-08-07T14:02:48.977Z,95392.02
2018-08-07T14:05:18.584Z,95390.77
2018-08-07T14:07:48.437Z,95404.61
2018-08-07T14:10:17.844Z,95390.69
2018-08-07T14:12:46.578Z,95391.42
2018-08-07T14:15:16.388Z,95389.69
2018-08-07T14:17:45.586Z,95391.13
2018-08-07T14:20:15.298Z,95401.04
2018-08-07T14:22:44.054Z,95400.27
2018-08-07T14:25:21.850Z,95405.44
2018-08-07T14:27:50.606Z,95411.55
2018-08-07T14:30:21.386Z,95408.36
2018-08-07T14:32:50.187Z,95415.76
2018-08-07T14:35:19.137Z,95411.88
2018-08-07T14:37:48.383Z,95411.47
2018-08-07T14:40:22.189Z,95398.59
2018-08-07T14:42:51.423Z,95405.68
2018-08-07T14:45:24.447Z,95405.85
2018-08-07T14:47:53.828Z,95402.90
2018-08-07T14:50:24.532Z,95399.84
2018-08-07T14:52:53.519Z,95403.48
2018-08-07T14:55:22.349Z,95401.87
2018-08-07T14:57:51.419Z,95406.73
2018-08-07T15:00:25.192Z,95401.87
2018-08-07T15:02:53.932Z,95407.23
2018-08-07T15:05:22.712Z,95405.81
2018-08-07T15:07:51.366Z,95400.18
2018-08-07T15:10:25.539Z,95406.06
2018-08-07T15:12:54.335Z,95410.39
2018-08-07T15:15:28.184Z,95407.47
2018-08-07T15:17:56.936Z,95405.52
2018-08-07T15:20:27.188Z,95413.19
2018-08-07T15:22:56.508Z,95416.34
2018-08-07T15:25:25.590Z,95419.50
2018-08-07T15:27:54.230Z,95416.45
2018-08-07T15:30:24.849Z,95414.49
2018-08-07T15:32:53.898Z,95413.56
2018-08-07T15:35:24.001Z,95417.00
2018-08-07T15:37:52.638Z,95414.16
2018-08-07T15:40:21.590Z,95414.07
2018-08-07T15:42:50.479Z,95404.24
2018-08-07T15:45:21.462Z,95402.32
2018-08-07T15:47:50.196Z,95402.08
2018-08-07T15:50:19.475Z,95400.27
2018-08-07T15:52:49.665Z,95405.75
2018-08-07T15:55:19.923Z,95407.48
2018-08-07T15:57:48.645Z,95412.75
2018-08-07T16:00:20.605Z,95412.66
2018-08-07T16:02:49.474Z,95408.74
2018-08-07T16:05:18.494Z,95410.28
2018-08-07T16:07:47.558Z,95414.66
2018-08-07T16:10:17.443Z,95417.97
2018-08-07T16:13:24.044Z,95407.93
2018-08-07T16:15:52.732Z,95415.32
2018-08-07T16:18:21.396Z,95412.63
2018-08-07T16:20:50.188Z,95416.31
2018-08-07T16:23:18.947Z,95415.16
2018-08-07T16:25:47.610Z,95412.15
2018-08-07T16:28:16.294Z,95414.95
2018-08-07T16:30:44.981Z,95420.34
2018-08-07T16:33:13.655Z,95416.20
2018-08-07T16:35:42.438Z,95416.25
2018-08-07T16:38:11.147Z,95411.52
2018-08-07T16:40:39.879Z,95419.16
2018-08-07T16:43:08.586Z,95420.87
2018-08-07T16:45:37.232Z,95428.56
2018-08-07T16:48:06.341Z,95433.51
2018-08-07T16:50:35.195Z,95433.77
2018-08-07T16:53:03.878Z,95434.48
2018-08-07T16:55:32.527Z,95436.73
2018-08-07T16:58:01.263Z,95441.61
2018-08-07T17:00:30.080Z,95442.48
2018-08-07T17:02:58.755Z,95441.25
2018-08-07T17:05:27.450Z,95443.09
2018-08-07T17:07:56.262Z,95443.98
2018-08-07T17:10:27.616Z,95444.84
2018-08-07T17:12:56.418Z,95450.30
2018-08-07T17:15:25.177Z,95446.82
2018-08-07T17:17:53.926Z,95442.77
2018-08-07T17:20:23.382Z,95444.42
2018-08-07T17:22:52.686Z,95297.84
2018-08-07T17:25:22.478Z,95449.88
2018-08-07T17:27:51.438Z,95453.23
2018-08-07T17:30:22.575Z,95453.42
2018-08-07T17:32:51.403Z,95457.68
2018-08-07T17:35:22.445Z,95452.28
2018-08-07T17:37:52.540Z,95452.73
2018-08-07T17:40:23.614Z,95451.66
2018-08-07T17:42:52.389Z,95461.00
2018-08-07T17:45:21.408Z,95460.66
2018-08-07T17:47:50.316Z,95456.57
2018-08-07T17:50:20.397Z,95462.02
2018-08-07T17:52:49.223Z,95464.16
2018-08-07T17:55:18.219Z,95459.92
2018-08-07T17:57:47.664Z,95468.73
2018-08-07T18:00:19.071Z,95465.52
2018-08-07T18:02:47.908Z,95469.67
2018-08-07T18:05:16.586Z,95463.16
2018-08-07T18:07:46.858Z,95474.66
2018-08-07T18:10:16.913Z,95473.69
2018-08-07T18:12:45.792Z,95473.18
2018-08-07T18:15:15.679Z,95474.37
2018-08-07T18:17:44.876Z,95476.41
2018-08-07T18:20:15.284Z,95483.04
2018-08-07T18:22:44.054Z,95480.71
2018-08-07T18:25:12.796Z,95483.63
2018-08-07T18:27:41.628Z,95494.73
2018-08-07T18:30:15.312Z,95496.80
2018-08-07T18:32:44.465Z,95505.70
2018-08-07T18:35:17.123Z,95500.95
2018-08-07T18:37:45.795Z,95504.26
2018-08-07T18:40:14.535Z,95503.28
2018-08-07T18:42:43.259Z,95506.92
2018-08-07T18:45:13.152Z,95516.65
2018-08-07T18:47:42.496Z,95503.91
2018-08-07T18:50:13.681Z,95504.40
2018-08-07T18:52:42.554Z,95508.62
2018-08-07T18:55:12.967Z,95514.34
2018-08-07T18:57:42.152Z,95519.69
2018-08-07T19:00:15.645Z,95521.50
2018-08-07T19:02:44.367Z,95518.55
2018-08-07T19:05:14.848Z,95524.91
2018-08-07T19:07:43.510Z,95522.82
2018-08-07T19:10:12.618Z,95529.05
2018-08-07T19:12:41.458Z,95526.77
2018-08-07T19:15:11.235Z,95526.18
2018-08-07T19:17:39.901Z,95531.16
2018-08-07T19:20:09.668Z,95531.47
2018-08-07T19:22:38.359Z,95525.75
2018-08-07T19:25:08.316Z,95518.02
2018-08-07T19:27:37.097Z,95514.52
2018-08-07T19:30:09.914Z,95504.25
2018-08-07T19:32:39.032Z,95516.52
2018-08-07T19:35:08.401Z,95513.55
2018-08-07T19:37:37.244Z,95515.13
2018-08-07T19:40:07.636Z,95520.81
2018-08-07T19:42:36.782Z,95524.84
2018-08-07T19:45:07.497Z,95519.08
2018-08-07T19:47:36.254Z,95518.25
2018-08-07T19:50:05.923Z,95512.17
2018-08-07T19:52:34.891Z,95508.23
2018-08-07T19:55:03.638Z,95516.75
2018-08-07T19:57:32.430Z,95522.14
2018-08-07T20:00:01.168Z,95520.02
2018-08-07T20:02:29.818Z,95360.92
2018-08-07T20:04:58.475Z,95513.48
2018-08-07T20:07:27.142Z,95521.29
2018-08-07T20:09:55.811Z,95532.00
2018-08-07T20:12:24.494Z,95535.69
2018-08-07T20:14:53.116Z,95532.14
2018-08-07T20:17:21.764Z,95543.60
2018-08-07T20:19:50.522Z,95539.02
2018-08-07T20:22:19.424Z,95536.52
2018-08-07T20:24:48.142Z,95543.41
2018-08-07T20:27:16.849Z,95542.06
2018-08-07T20:29:45.534Z,95535.16
2018-08-07T20:32:14.182Z,95538.05
2018-08-07T20:34:42.895Z,95543.77
2018-08-07T20:37:11.551Z,95545.73
2018-08-07T20:39:40.226Z,95546.91
2018-08-07T20:42:08.936Z,95548.30
2018-08-07T20:44:37.622Z,95547.42
2018-08-07T20:47:06.390Z,95548.25
2018-08-07T20:49:35.116Z,95545.67
2018-08-07T20:52:03.775Z,95552.38
2018-08-07T20:54:32.447Z,95547.95
2018-08-07T20:57:01.085Z,95547.95
2018-08-07T20:59:29.729Z,95553.27
2018-08-07T21:01:58.440Z,95553.16
2018-08-07T21:04:27.124Z,95557.52
2018-08-07T21:06:55.792Z,95557.39
2018-08-07T21:09:24.421Z,95566.36
2018-08-07T21:11:53.136Z,95567.09
2018-08-07T21:14:21.851Z,95568.26
2018-08-07T21:16:50.587Z,95567.11
2018-08-07T21:19:19.277Z,95565.89
2018-08-07T21:21:47.948Z,95567.05
2018-08-07T21:24:16.621Z,95567.16
2018-08-07T21:26:45.319Z,95560.54
2018-08-07T21:29:13.998Z,95565.98
2018-08-07T21:31:42.648Z,95570.22
2018-08-07T21:34:11.272Z,95571.95
2018-08-07T21:36:40.045Z,95577.05
2018-08-07T21:39:09.844Z,95580.23
2018-08-07T21:41:38.727Z,95581.61
2018-08-07T21:44:07.623Z,95575.73
2018-08-07T21:46:36.744Z,95580.23
2018-08-07T21:49:05.656Z,95580.34
2018-08-07T21:51:34.333Z,95580.55
2018-08-07T21:54:03.157Z,95578.81
2018-08-07T21:56:31.900Z,95574.76
2018-08-07T21:59:00.628Z,95574.69
2018-08-07T22:01:29.322Z,95576.09
2018-08-07T22:03:57.937Z,95576.96
2018-08-07T22:06:26.577Z,95577.56
2018-08-07T22:08:55.222Z,95575.02
2018-08-07T22:11:23.847Z,95579.30
2018-08-07T22:13:52.558Z,95572.00
2018-08-07T22:16:21.294Z,95568.84
2018-08-07T22:18:49.996Z,95573.94
2018-08-07T22:21:18.772Z,95570.48
2018-08-07T22:23:47.428Z,95564.16
2018-08-07T22:26:16.117Z,95566.45
2018-08-07T22:28:44.777Z,95569.02
2018-08-07T22:31:13.536Z,95566.50
2018-08-07T22:33:42.164Z,95566.68
2018-08-07T22:36:10.813Z,95569.60
2018-08-07T22:38:39.466Z,95570.36
2018-08-07T22:41:08.195Z,95571.36
2018-08-07T22:43:36.819Z,95574.86
2018-08-07T22:46:05.656Z,95574.66
2018-08-07T22:48:34.271Z,95578.17
2018-08-07T22:51:02.945Z,95577.20
2018-08-07T22:53:31.630Z,95576.83
2018-08-07T22:56:00.282Z,95576.62
2018-08-07T22:58:28.926Z,95580.77
2018-08-07T23:00:57.597Z,95578.74
2018-08-07T23:03:26.289Z,95575.20
2018-08-07T23:05:54.978Z,95570.52
2018-08-07T23:08:23.686Z,95581.72
2018-08-07T23:10:52.346Z,95575.81
2018-08-07T23:13:21.009Z,95407.78
2018-08-07T23:15:49.664Z,95572.46
2018-08-07T23:18:18.294Z,95568.70
2018-08-07T23:20:46.942Z,95565.20
2018-08-07T23:23:15.590Z,95570.52
2018-08-07T23:25:44.234Z,95571.70
2018-08-07T23:28:12.862Z,95569.58
2018-08-07T23:30:41.457Z,95572.75
2018-08-07T23:33:10.185Z,95578.16
2018-08-07T23:35:38.823Z,95593.05
2018-08-07T23:38:07.592Z,95585.98
2018-08-07T23:40:36.242Z,95587.73
2018-08-07T23:43:04.935Z,95579.33
2018-08-07T23:45:33.589Z,95577.39
2018-08-07T23:48:02.229Z,95578.58
2018-08-07T23:50:30.923Z,95578.58
2018-08-07T23:52:59.615Z,95582.52
2018-08-07T23:55:28.256Z,95581.55
2018-08-07T23:57:56.943Z,95577.82
